createdAt,value
2022-12-12T00:06:20.872Z,0.85
2022-12-12T00:21:19.276Z,0.79
2022-12-12T00:36:13.903Z,0.77
2022-12-12T00:51:09.408Z,0.72
2022-12-12T01:06:02.149Z,0.62
2022-12-12T01:20:51.802Z,0.57
2022-12-12T01:35:41.646Z,0.43
2022-12-12T01:50:30.374Z,0.29
2022-12-12T02:05:22.112Z,0.20
2022-12-12T02:20:37.628Z,0.11
2022-12-12T02:36:08.368Z,-0.04
2022-12-12T02:51:02.762Z,-0.16
2022-12-12T03:06:22.204Z,-0.24
2022-12-12T03:21:18.554Z,-0.34
2022-12-12T03:36:17.427Z,-0.46
2022-12-12T03:51:16.569Z,-0.59
2022-12-12T04:06:28.022Z,-0.70
2022-12-12T04:22:03.679Z,-0.83
2022-12-12T04:36:59.498Z,-0.97
2022-12-12T04:51:48.421Z,-1.16
2022-12-12T05:06:38.218Z,-1.23
2022-12-12T05:21:28.277Z,-1.28
2022-12-12T05:36:18.683Z,-1.29
2022-12-12T05:51:08.216Z,-1.33
2022-12-12T06:05:58.263Z,-1.33
2022-12-12T06:20:47.928Z,-1.36
2022-12-12T06:35:37.710Z,-1.35
2022-12-12T06:50:27.734Z,-1.35
2022-12-12T07:05:17.041Z,-1.32
2022-12-12T07:34:56.932Z,-1.27
2022-12-12T07:49:46.562Z,-1.20
2022-12-12T08:04:36.560Z,-1.12
2022-12-12T08:19:26.411Z,-0.98
2022-12-12T08:49:06.350Z,-0.73
2022-12-12T09:03:55.873Z,-0.61
2022-12-12T09:18:49.032Z,-0.51
2022-12-12T09:33:35.511Z,-0.39
2022-12-12T09:48:28.471Z,-0.20
2022-12-12T10:03:30.174Z,0.04
2022-12-12T10:18:33.020Z,0.07
2022-12-12T10:33:30.712Z,0.19
2022-12-12T10:48:24.017Z,0.23
2022-12-12T11:03:22.796Z,0.25
2022-12-12T11:33:22.193Z,0.36
2022-12-12T11:48:33.860Z,0.78
2022-12-12T12:03:50.915Z,0.96
2022-12-12T12:34:24.121Z,1.26
2022-12-12T12:49:19.820Z,1.74
2022-12-12T13:04:12.029Z,1.75
2022-12-12T13:19:05.188Z,1.55
2022-12-12T13:49:03.047Z,1.51
2022-12-12T14:03:57.457Z,1.52
2022-12-12T14:18:50.606Z,1.55
2022-12-12T14:34:07.283Z,1.51
2022-12-12T14:49:03.243Z,1.31
2022-12-12T15:03:57.140Z,1.22
2022-12-12T15:18:41.412Z,1.07
2022-12-12T15:33:31.527Z,0.93
2022-12-12T15:48:21.050Z,0.78
2022-12-12T16:03:16.587Z,0.60
2022-12-12T16:18:12.904Z,0.48
2022-12-12T16:33:20.935Z,0.55
2022-12-12T16:48:16.277Z,0.46
2022-12-12T17:03:05.294Z,0.31
2022-12-12T17:17:55.475Z,0.23
2022-12-12T17:33:16.511Z,0.17
2022-12-12T17:47:35.060Z,0.08
2022-12-12T18:02:25.459Z,0.07
2022-12-12T18:17:15.736Z,0.09
2022-12-12T18:32:06.111Z,0.06
2022-12-12T18:46:55.965Z,0.08
2022-12-12T19:01:46.150Z,0.04
2022-12-12T19:16:35.896Z,0.00
2022-12-12T19:31:25.808Z,-0.08
2022-12-12T19:46:17.193Z,-0.20
2022-12-12T20:01:09.199Z,-0.39
2022-12-12T20:15:59.196Z,-0.42
2022-12-12T20:30:53.294Z,-0.54
2022-12-12T20:45:37.992Z,-0.60
2022-12-12T21:00:29.004Z,-0.62
2022-12-12T21:15:20.042Z,-0.69
2022-12-12T21:30:08.579Z,-0.90
2022-12-12T21:44:58.363Z,-0.96
2022-12-12T21:59:46.620Z,-1.05
2022-12-12T22:14:36.338Z,-1.14
2022-12-12T22:29:25.761Z,-1.20
2022-12-12T22:44:14.998Z,-1.27
2022-12-12T22:59:04.945Z,-1.33
2022-12-12T23:13:53.448Z,-1.62
2022-12-12T23:28:42.274Z,-1.71
2022-12-12T23:43:31.440Z,-1.84
2022-12-12T23:58:20.858Z,-2.03
